Startpagina
METAR-TAF:

METAR-TAF

Vliegvelden :

Inhambane, Mozambique

breedte: 23-52S, lengte: 035-23E, hoogte: 14 m

Actueel weer

Dit bericht is 4 uur en het 25 minuten geleden gemaakt, om 19:00 UTC
Wind 4 kt uit het westen
Temperatuur 20°C
Vochtigheid 78%
Druk 1026 hPa
Zicht 10 km of meer
Verspreide wolken op 2000 ft

METAR: FQIN 151900Z 26004KT 9999 SCT020 20/16 Q1026

Tijdstip: 01:25 (23:25 UTC)

Verwachting

Dit bericht is 7 uur en het 25 minuten geleden gemaakt, om 16:00 UTC
Verwachting geldig van 15 om 18 UTC tot 16 om 18 UTC
Wind 10 kt uit het zuiden
Zicht 10 km of meer
Verspreide wolken op 2000 ft
Wijzigt naar
van 16 om 08 UTC tot 16 om 10 UTC
Wind 12 kt uit het oostzuidoosten

TAF: FQIN 151600Z 1518/1618 19010KT 9999 SCT020 TX25/1613Z TN17/1603Z BECMG 1608/1610 12012KT

Waarnemingen en weersverwachtingen van meer dan 4000 vliegvelden (METAR en TAF).

De beschikbare stations zijn de gele en rode punten op de kaart.

Ga met uw muis naar het station om de naam te zien.

Klik dan om waarnemingen en weersverwachtingen te zien.

kaart wijzigen: klik op de groene knoppen met een zwart kruis om in te zoomen, op de groene knop met een streepje om uit te zoomen of op de groene pijlen voor aangrenzende kaarten.


METAR-TAF: